ADDS METAR Data INFO
IDs: Format: Raw Decoded Include TAF

Data at: 0457 UTC 23 May 2017

KRKP 230453Z AUTO 05008KT 10SM BKN012 BKN017 25/22 A2986 RMK AO2 SLP113 T02500222
KRKP 230449Z AUTO 06009KT 10SM BKN012 BKN017 25/22 A2987 RMK AO2
KRKP 230353Z AUTO 03009KT 10SM CLR 25/23 A2985 RMK AO2 SLP109 T02500228
KRKP 230253Z AUTO 02008KT 10SM CLR 26/23 A2982 RMK AO2 SLP099 T02610233 53007
KRKP 230153Z AUTO 00000KT 10SM CLR 26/22 A2981 RMK AO2 SLP094 T02610222
KRKP 230053Z AUTO 33003KT 10SM CLR 27/22 A2980 RMK AO2 SLP092 T02720222
KRKP 222353Z AUTO 00000KT 10SM FEW110 28/23 A2980 RMK AO2 SLP092 T02780228 10289 20261 58015
KRKP 222253Z AUTO 11005KT 10SM BKN080 BKN095 28/23 A2982 RMK AO2 SLP098 T02780228
KRKP 222153Z AUTO 00000KT 10SM SCT090 28/22 A2983 RMK AO2 SLP103 T02830222
KRKP 222053Z AUTO 14005KT 10SM BKN075 28/22 A2984 RMK AO2 SLP108 T02830217 58020
KRKP 221953Z AUTO 11006KT 10SM FEW015 BKN065 28/22 A2987 RMK AO2 SLP115 T02830222
KRKP 221944Z AUTO 12005KT 10SM SCT015 BKN065 28/22 A2986 RMK AO2 T02780222
KRKP 221932Z AUTO 14006KT 10SM BKN015 28/23 A2987 RMK AO2 T02830228
KRKP 221913Z AUTO 14007KT 10SM BKN014 BKN065 28/23 A2988 RMK AO2 T02780228
KRKP 221853Z AUTO 15006KT 10SM BKN065 27/22 A2989 RMK AO2 SLP122 T02670222
KRKP 221753Z AUTO 14008KT 10SM OVC060 26/22 A2991 RMK AO2 RAB24E39 SLP128 P0000 60000 T02610222 10278 20222 58008
KRKP 221739Z AUTO 15009KT 10SM FEW011 SCT027 OVC060 26/23 A2991 RMK AO2 RAB24E39 P0000 T02610228
KRKP 221653Z AUTO 14009KT 10SM SCT015 BKN020 OVC025 26/22 A2993 RMK AO2 SLP136 T02610222
KRKP 221635Z AUTO 13011KT 10SM BKN015 OVC023 27/23 A2992 RMK AO2 T02670228
KRKP 221553Z AUTO 09009KT 10SM BKN012 BKN070 27/23 A2991 RMK AO2 SLP131 T02720228
KRKP 221508Z AUTO 08008KT 10SM SCT012 BKN065 27/23 A2993 RMK AO2 T02670228
KRKP 221453Z AUTO 07007KT 10SM BKN012 OVC060 26/23 A2993 RMK AO2 RAB01E18 SLP136 P0000 60000 T02610228 50006
KRKP 221409Z AUTO 04009KT 10SM -RA BKN011 BKN050 OVC065 24/22 A2994 RMK AO2 LTG DSNT SE RAB01 P0000 T02440222
KRKP 221353Z AUTO 05010KT 10SM SCT010 BKN050 OVC065 24/22 A2994 RMK AO2 LTG DSNT E RAB03E14 SLP140 P0000 T02390217
KRKP 221351Z AUTO 05010KT 10SM BKN010 OVC055 24/22 A2994 RMK AO2 LTG DSNT E RAB03E14 P0000
KRKP 221253Z AUTO 04013KT 10SM FEW006 OVC050 23/21 A2991 RMK AO2 SLP130 T02280211
KRKP 221219Z AUTO 02015KT 10SM SCT008 OVC044 22/21 A2991 RMK AO2 LTG DSNT E AND SE T02220206
KRKP 221211Z AUTO 02019G25KT 10SM BKN008 OVC041 22/21 A2991 RMK AO2 LTG DSNT E AND SE T02220206
KRKP 221203Z AUTO 03017G25KT 10SM SCT009 OVC038 22/20 A2990 RMK AO2 LTG DSNT E AND SE T02220200
KRKP 221153Z AUTO 02015G22KT 10SM OVC036 22/20 A2991 RMK AO2 PK WND 35033/1056 LTG DSNT E AND SE RAE11 SLP129 P0000 60050 70050 T02220200 10261 20217 51006
KRKP 221130Z AUTO 36017G25KT 10SM OVC032 22/20 A2991 RMK AO2 PK WND 35033/1056 LTG DSNT E-S RAE11 P0000 T02170200
KRKP 221113Z AUTO 36017G30KT 10SM VCTS SCT008 BKN030 OVC039 22/20 A2990 RMK AO2 PK WND 35033/1056 LTG DSNT NE-S RAE11 P0000 T02170200
KRKP 221100Z AUTO 35023G33KT 10SM VCTS -RA BKN007 OVC014 22/20 A2989 RMK AO2 PK WND 35033/1056 LTG DSNT NE-SE CIG 005V011 P0000 T02170200
KRKP 221053Z AUTO 33024G37KT 10SM VCTS -RA BKN008 OVC015 22/21 A2990 RMK AO2 PK WND 33037/1048 LTG DSNT ALQDS TSE39 SLP126 P0017 T02220206
KRKP 221049Z AUTO 33029G37KT 10SM VCTS -RA BKN008 OVC015 23/22 A2990 RMK AO2 PK WND 33037/1048 LTG DSNT ALQDS TSE39 P0017
KRKP 221040Z AUTO 33023G28KT 9SM VCTS -RA SCT008 OVC015 24/22 A2991 RMK AO2 PK WND 33028/1040 LTG DSNT ALQDS TSE39 P0017 T02390222
KRKP 221000Z AUTO 33014G19KT 4SM TSRA BR FEW005 OVC010 24/23 A2989 RMK AO2 LTG DSNT NW-E CIG 008V012 P0002 T02440228
KRKP 220953Z AUTO 31010KT 7SM -TSRA BKN007 OVC012 25/23 A2989 RMK AO2 LTG DSNT NW-E RAB21 TSB52 CIG 004V009 SLP123 P0002 T02500233
KRKP 220932Z AUTO 29004KT 4SM RA BR BKN005 BKN012 OVC022 26/24 A2989 RMK AO2 LTG DSNT N AND NE RAB21 CIG 004V009 P0001 T02610244
KRKP 220918Z AUTO 23005KT 7SM SCT009 BKN012 OVC022 26/24 A2988 RMK AO2 LTG DSNT N AND NE T02610244
KRKP 220906Z AUTO 20005KT 8SM SCT010 BKN015 OVC029 26/25 A2989 RMK AO2 LTG DSNT N AND NE T02610250
KRKP 220853Z AUTO 18006KT 8SM VCTS BKN010 BKN015 OVC021 26/25 A2989 RMK AO2 LTG DSNT N AND NE RAE26 CIG 006V013 SLP122 P0009 60031 T02610250 58020
KRKP 220842Z AUTO 19007KT 7SM VCTS BKN008 BKN012 OVC027 26/25 A2988 RMK AO2 LTG DSNT N-E RAE26 P0009 T02610250
KRKP 220823Z AUTO 15003KT 10SM -RA BKN009 OVC013 24/23 A2989 RMK AO2 LTG DSNT NE AND E CIG 005V011 P0009 T02440233
KRKP 220753Z AUTO 12011KT 7SM -RA OVC006 26/24 A2990 RMK AO2 LTG DSNT E AND SE TSB17E41 CIG 004V010 SLP127 P0022 T02560244
KRKP 220738Z AUTO 12012KT 5SM -TSRA BR OVC007 26/24 A2991 RMK AO2 LTG DSNT E AND SE TSB17 CIG 004V010 P0021 T02610244
KRKP 220723Z AUTO 10009KT 2 1/2SM +TSRA BR BKN008 OVC012 26/24 A2993 RMK AO2 LTG DSNT NE AND S TSB17 CIG 007V011 P0015 T02560239
KRKP 220711Z AUTO 09009KT 9SM VCTS -RA BKN010 OVC014 26/23 A2994 RMK AO2 LTG DSNT NE AND E AND SW P0001 T02560233
KRKP 220653Z AUTO 08013KT 10SM -RA FEW010 BKN013 OVC023 26/24 A2995 RMK AO2 RAE02B52 SLP143 P0000 T02610239
KRKP 220651Z AUTO 08011KT 10SM FEW010 BKN013 OVC021 26/24 A2995 RMK AO2 RAE02 P0000
KRKP 220553Z AUTO 08012KT 8SM -RA SCT010 BKN018 OVC028 27/24 A2995 RMK AO2 RAB30 SLP143 P0000 60000 T02670244 10272 20267 403110261 56009
KRKP 220512Z AUTO 08014KT 10SM SCT011 BKN017 OVC029 27/24 A2994 RMK AO2 T02720244
KRKP 220501Z AUTO 07013KT 10SM BKN011 BKN017 27/24 A2996 RMK AO2 T02720244
KRKP 220453Z AUTO 08013KT 10SM SCT011 BKN017 27/24 A2995 RMK AO2 SLP144 T02720244
KRKP 220442Z AUTO 08012KT 10SM FEW009 SCT022 SCT040 27/24 A2996 RMK AO2 T02720244
KRKP 220427Z AUTO 08017KT 10SM FEW010 FEW016 SCT023 27/24 A2992 RMK AO2 PRESFR T02720239
KRKP 220353Z AUTO 08012KT 10SM SCT010 BKN016 OVC026 27/24 A2997 RMK AO2 SLP149 T02720244
KRKP 220346Z AUTO 08013KT 9SM BKN010 BKN019 OVC032 27/24 A2996 RMK AO2 T02720244
KRKP 220302Z AUTO 07008KT 10SM SCT010 BKN017 BKN022 27/24 A2999 RMK AO2 T02720244
KRKP 220253Z AUTO 08010KT 10SM BKN013 BKN020 BKN025 27/24 A2998 RMK AO2 SLP153 T02720244 53034
KRKP 220210Z AUTO 09009G19KT 10SM BKN010 BKN014 27/24 A2997 RMK AO2 T02720244
KRKP 220153Z AUTO 08016KT 10SM SCT010 27/24 A2993 RMK AO2 SLP136 T02720239
KRKP 220140Z AUTO 09012KT 10SM SCT011 27/24 A2993 RMK AO2 T02720239
KRKP 220133Z AUTO 09013KT 10SM BKN011 27/24 A2994 RMK AO2 PRESRR T02720239
KRKP 220053Z AUTO 08015G21KT 9SM FEW013 27/24 A2989 RMK AO2 SLP123 T02720239
KRKP 212353Z AUTO 07018G23KT 10SM FEW090 27/24 A2988 RMK AO2 PRESFR SLP118 T02720239 10306 20272 58009
KRKP 212253Z AUTO 09007KT 10SM FEW010 28/24 A2992 RMK AO2 SLP134 T02780239
KRKP 212153Z AUTO 11011KT 10SM CLR 28/24 A2991 RMK AO2 SLP128 T02830239 $
KRKP 212053Z AUTO 12015KT 10SM CLR 30/24 A2990 RMK AO2 SLP127 T03000239 58021 $
KRKP 211953Z AUTO 12015KT 10SM CLR 30/24 A2994 RMK AO2 LTG DSNT NE SLP139 T03000239 $
KRKP 211853Z AUTO 11011KT 10SM BKN050 BKN060 29/23 A2996 RMK AO2 SLP148 T02940233 $
KRKP 211753Z AUTO 12011KT 10SM SCT043 BKN050 30/23 A2997 RMK AO2 LTG DSNT N SLP148 T03000233 10311 20267 56009 $


Page loaded:  04:57 UTC  |   09:57 PM Pacific  |   10:57 PM Mountain  |   11:57 PM Central  |   12:57 AM Eastern

 

ADVISORIES

FORECASTS

FORECASTS

OBSERVATIONS

USER TOOLS

ABOUT US